createdAt,value
2023-06-04T17:18:22.884Z,1.70
2023-06-04T17:20:54.448Z,1.70
2023-06-04T17:23:26.858Z,1.70
2023-06-04T17:25:58.343Z,1.60
2023-06-04T17:28:28.869Z,1.50
2023-06-04T17:31:00.202Z,1.40
2023-06-04T17:33:33.774Z,1.40
2023-06-04T17:36:05.644Z,1.50
2023-06-04T17:38:36.479Z,1.50
2023-06-04T17:41:07.323Z,1.60
2023-06-04T17:43:40.200Z,1.80
2023-06-04T17:46:10.956Z,1.60
2023-06-04T17:48:42.113Z,1.60
2023-06-04T17:51:14.411Z,1.40
2023-06-04T17:53:45.313Z,1.40
2023-06-04T17:56:15.821Z,1.10
2023-06-04T17:58:46.340Z,1.20
2023-06-04T18:01:16.983Z,1.40
2023-06-04T18:03:51.010Z,1.70
2023-06-04T18:06:21.949Z,1.20
2023-06-04T18:08:52.512Z,1.30
2023-06-04T18:11:23.301Z,1.40
2023-06-04T18:13:53.774Z,1.40
2023-06-04T18:16:24.696Z,1.40
2023-06-04T18:18:55.313Z,1.40
2023-06-04T18:21:25.872Z,1.30
2023-06-04T18:23:57.984Z,1.30
2023-06-04T18:26:28.700Z,1.50
2023-06-04T18:28:59.400Z,1.40
2023-06-04T18:31:30.199Z,1.30
2023-06-04T18:34:02.224Z,6.20
2023-06-04T18:36:33.349Z,5.00
2023-06-04T18:39:04.749Z,1.60
2023-06-04T18:41:35.740Z,1.50
2023-06-04T18:44:07.215Z,1.60
2023-06-04T18:46:38.266Z,1.40
2023-06-04T18:49:09.338Z,1.60
2023-06-04T18:51:40.887Z,1.40
2023-06-04T18:54:11.857Z,1.70
2023-06-04T18:56:43.105Z,1.50
2023-06-04T18:59:16.337Z,1.80
2023-06-04T19:01:47.788Z,1.50
2023-06-04T19:04:18.913Z,1.20
2023-06-04T19:06:49.579Z,1.70
2023-06-04T19:09:20.399Z,1.60
2023-06-04T19:11:51.741Z,1.60
2023-06-04T19:14:22.408Z,1.60
2023-06-04T19:16:52.917Z,1.90
2023-06-04T19:19:23.996Z,1.50
2023-06-04T19:21:54.509Z,1.60
2023-06-04T19:24:25.150Z,1.60
2023-06-04T19:26:56.007Z,1.60
2023-06-04T19:29:26.545Z,1.50
2023-06-04T19:31:57.542Z,1.70
2023-06-04T19:34:29.101Z,1.70
2023-06-04T19:37:00.118Z,1.40
2023-06-04T19:39:31.127Z,1.70
2023-06-04T19:42:01.623Z,1.50
2023-06-04T19:44:32.141Z,1.70
2023-06-04T19:47:04.081Z,1.80
2023-06-04T19:49:35.788Z,3.10
2023-06-04T19:52:06.703Z,3.90
2023-06-04T19:54:37.548Z,2.10
2023-06-04T19:57:11.050Z,1.80
2023-06-04T19:59:42.792Z,1.70
2023-06-04T20:02:13.468Z,1.90
2023-06-04T20:04:44.149Z,1.90
2023-06-04T20:07:14.876Z,1.70
2023-06-04T20:09:46.080Z,1.90
2023-06-04T20:12:17.399Z,1.80
2023-06-04T20:14:48.042Z,2.30
2023-06-04T20:17:18.888Z,2.30
2023-06-04T20:19:49.736Z,2.00
2023-06-04T20:22:20.297Z,1.90
2023-06-04T20:24:51.201Z,1.90
2023-06-04T20:27:21.676Z,1.90
2023-06-04T20:29:52.560Z,2.00
2023-06-04T20:32:24.551Z,6.80
2023-06-04T20:34:55.503Z,6.90
2023-06-04T20:37:25.987Z,4.80
2023-06-04T20:39:56.907Z,3.00
2023-06-04T20:42:27.501Z,2.40
2023-06-04T20:44:58.051Z,1.90
2023-06-04T20:47:29.281Z,2.20
2023-06-04T20:49:59.949Z,1.90
2023-06-04T20:52:30.535Z,1.80
2023-06-04T20:55:01.125Z,1.80
2023-06-04T20:57:31.737Z,1.90
2023-06-04T21:00:02.237Z,1.90
2023-06-04T21:02:33.774Z,1.70
2023-06-04T21:05:05.453Z,1.60
2023-06-04T21:07:36.201Z,1.90
2023-06-04T21:10:08.462Z,1.90
2023-06-04T21:12:39.168Z,1.80
2023-06-04T21:15:11.657Z,1.80
2023-06-04T21:17:42.408Z,1.80
2023-06-04T21:20:14.439Z,1.70
2023-06-04T21:22:45.134Z,1.70
2023-06-04T21:25:15.709Z,1.90
2023-06-04T21:27:50.239Z,1.70
2023-06-04T21:30:21.378Z,1.70
2023-06-04T21:32:51.978Z,1.70
2023-06-04T21:35:23.310Z,3.20
2023-06-04T21:37:54.071Z,2.70
2023-06-04T21:40:24.985Z,1.80
2023-06-04T21:42:55.695Z,1.60
2023-06-04T21:45:26.838Z,1.70
2023-06-04T21:47:58.571Z,1.90
2023-06-04T21:50:29.449Z,2.20
2023-06-04T21:53:00.358Z,1.90
2023-06-04T21:55:31.435Z,1.70
2023-06-04T21:58:02.097Z,1.90
2023-06-04T22:00:32.842Z,2.10
2023-06-04T22:03:04.094Z,1.80
2023-06-04T22:05:34.935Z,1.90
2023-06-04T22:08:06.465Z,1.80
2023-06-04T22:10:37.312Z,1.80
2023-06-04T22:13:08.328Z,2.40
2023-06-04T22:15:40.222Z,2.20
2023-06-04T22:18:11.392Z,1.70
2023-06-04T22:20:42.450Z,2.00
2023-06-04T22:23:13.066Z,2.10
2023-06-04T22:25:43.559Z,1.90
2023-06-04T22:28:14.565Z,2.30
2023-06-04T22:30:45.059Z,2.10
2023-06-04T22:33:16.070Z,1.90
2023-06-04T22:35:46.596Z,2.00
2023-06-04T22:38:17.262Z,2.10
2023-06-04T22:40:48.302Z,1.90
2023-06-04T22:43:19.349Z,2.00
2023-06-04T22:45:50.195Z,2.10
2023-06-04T22:48:20.738Z,2.20
2023-06-04T22:50:52.556Z,2.00
2023-06-04T22:53:24.137Z,1.90
2023-06-04T22:55:54.779Z,2.10
2023-06-04T22:58:25.751Z,2.30
2023-06-04T23:00:56.353Z,2.20
2023-06-04T23:03:28.892Z,2.30
2023-06-04T23:06:00.478Z,2.10
2023-06-04T23:08:31.437Z,2.20
2023-06-04T23:11:02.292Z,2.40
2023-06-04T23:13:32.889Z,2.20
2023-06-04T23:16:03.892Z,2.40
2023-06-04T23:18:34.543Z,2.00
2023-06-04T23:21:05.756Z,2.20
2023-06-04T23:23:36.907Z,2.20
2023-06-04T23:26:07.594Z,1.90
2023-06-04T23:28:38.648Z,2.20
2023-06-04T23:31:09.425Z,2.40
2023-06-04T23:33:40.084Z,2.10
2023-06-04T23:36:10.933Z,2.40
2023-06-04T23:38:41.862Z,2.40
2023-06-04T23:41:12.817Z,2.30
2023-06-04T23:43:43.598Z,2.20
2023-06-04T23:46:14.906Z,2.30
2023-06-04T23:48:45.966Z,2.40
2023-06-04T23:51:16.683Z,2.30
2023-06-04T23:53:47.918Z,2.10
2023-06-04T23:56:19.820Z,2.10
2023-06-04T23:58:50.832Z,2.00
